This is the latest recevied weather packets stored in our database for station/object KI4FRU. If no packets are shown the sender has not sent any weather packets the latest 10 day(s).
| Time | Temp. | Humidity | Pressure | Rain* | Wind** | Luminosity | Snow |
|---|---|---|---|---|---|---|---|
| 1777837435 | 22.22° C | 43% | 1056.1 hPa | 0 mm | - | 587 W/m² | - |
| 1777837131 | 21.67° C | 35% | 1056 hPa | 0 mm | - | 452 W/m² | - |
| 1777836827 | 22.78° C | 38% | 1056.3 hPa | 0 mm | - | 609 W/m² | - |
| 1777836523 | 22.78° C | 40% | 1056.3 hPa | 0 mm | - | 620 W/m² | - |
| 1777836219 | 21.67° C | 37% | 1056.6 hPa | 0 mm | - | 630 W/m² | - |
| 1777835915 | 22.78° C | 40% | 1056.6 hPa | 0 mm | - | 651 W/m² | - |
| 1777835612 | 21.67° C | 43% | 1056.6 hPa | 0 mm | - | 657 W/m² | - |
| 1777835310 | 22.78° C | 38% | 1056.8 hPa | 0 mm | - | 159 W/m² | - |
| 1777835007 | 20.56° C | 44% | 1056.8 hPa | 0 mm | - | 676 W/m² | - |
| 1777834704 | 21.11° C | 38% | 1056.8 hPa | 0 mm | - | 685 W/m² | - |
| 1777834400 | 21.11° C | 37% | 1056.8 hPa | 0 mm | - | 240 W/m² | - |
| 1777834100 | 22.22° C | 37% | 1057 hPa | 0 mm | - | 55 W/m² | - |
| 1777833796 | 21.67° C | 38% | 1056.9 hPa | 0 mm | - | 707 W/m² | - |
| 1777833491 | 21.67° C | 37% | 1057.3 hPa | 0 mm | - | 714 W/m² | - |
| 1777833189 | 20.56° C | 39% | 1057.5 hPa | 0 mm | - | 718 W/m² | - |
| 1777832886 | 20° C | 42% | 1057.5 hPa | 0 mm | - | 727 W/m² | - |
| 1777832585 | 21.11° C | 41% | 1057.4 hPa | 0 mm | - | 52 W/m² | - |
| 1777832282 | 20° C | 43% | 1057.5 hPa | 0 mm | - | 137 W/m² | - |
| 1777831979 | 20.56° C | 48% | 1057.5 hPa | 0 mm | - | 82 W/m² | - |
| 1777831675 | 18.33° C | 44% | 1057.6 hPa | 0 mm | - | 747 W/m² | - |
| 1777831374 | 20° C | 38% | 1057.6 hPa | 0 mm | - | 753 W/m² | - |
| 1777831069 | 21.11° C | 44% | 1057.8 hPa | 0 mm | - | 56 W/m² | - |
| 1777830768 | 22.22° C | 43% | 1057.8 hPa | 0 mm | - | 85 W/m² | - |
| 1777830463 | 22.22° C | 43% | 1057.8 hPa | 0 mm | - | 85 W/m² | - |
| 1777830163 | 20° C | 44% | 1057.8 hPa | 0 mm | - | 714 W/m² | - |
* Rain latest hour (hover to see other rain measurements)
** Current wind speed in m/s (hover to see current wind gust speed)